Time;durP1;ratioP1;P1;durP2;ratioP2;P2;SDS_P1;SDS_P2;PMS_P1;PMS_P2;Temp;Humidity;BMP_temperature;BMP_pressure;BME280_temperature;BME280_humidity;BME280_pressure;Samples;Min_cycle;Max_cycle;Signal;HPM_P1;HPM_P2
2021/05/10 00:00:11;;;;;;;37.78;23.55;;;8.10;85.90;;;;;;5052919;28;20025;-81
2021/05/10 00:02:36;;;;;;;44.20;27.10;;;8.10;86.00;;;;;;5051528;28;20036;-81
2021/05/10 00:05:03;;;;;;;42.58;27.75;;;8.10;85.90;;;;;;5052911;28;20417;-81
2021/05/10 00:07:28;;;;;;;46.50;29.20;;;8.10;85.90;;;;;;5052197;28;20427;-81
2021/05/10 00:09:54;;;;;;;41.60;27.02;;;8.00;86.00;;;;;;5056948;28;20060;-81
2021/05/10 00:12:20;;;;;;;43.92;28.48;;;8.00;86.20;;;;;;5056560;28;20061;-81
2021/05/10 00:14:48;;;;;;;43.63;27.55;;;8.00;86.30;;;;;;5056853;28;20029;-81
2021/05/10 00:17:14;;;;;;;37.78;25.17;;;8.00;86.10;;;;;;5056468;28;20070;-81
2021/05/10 00:19:40;;;;;;;39.85;27.58;;;8.00;86.20;;;;;;5056479;28;20017;-81
2021/05/10 00:22:07;;;;;;;35.47;24.05;;;8.00;86.20;;;;;;5056485;28;20025;-81
2021/05/10 00:24:33;;;;;;;35.80;24.13;;;8.00;86.20;;;;;;5056418;28;20025;-81
2021/05/10 00:26:59;;;;;;;34.30;23.05;;;8.00;86.80;;;;;;5054940;28;20040;-81
2021/05/10 00:29:24;;;;;;;35.80;23.88;;;8.00;86.20;;;;;;5055063;28;20025;-81
2021/05/10 00:31:50;;;;;;;34.33;22.77;;;8.00;86.20;;;;;;5056568;28;20371;-81
2021/05/10 00:34:16;;;;;;;35.20;21.88;;;8.00;86.30;;;;;;5056112;28;20025;-81
2021/05/10 00:36:42;;;;;;;31.88;20.45;;;7.90;86.30;;;;;;5056521;28;20053;-81
2021/05/10 00:39:08;;;;;;;32.17;19.75;;;7.90;86.30;;;;;;5056059;28;20024;-81
2021/05/10 00:41:34;;;;;;;30.08;19.02;;;7.90;86.30;;;;;;5056108;28;20536;-81
2021/05/10 00:44:00;;;;;;;26.70;16.77;;;7.90;86.40;;;;;;5054851;28;20025;-81
2021/05/10 00:46:26;;;;;;;29.30;18.20;;;7.90;86.50;;;;;;5054693;28;20488;-81
2021/05/10 00:48:52;;;;;;;26.38;16.77;;;7.80;86.50;;;;;;5055947;28;20108;-81
2021/05/10 00:51:18;;;;;;;25.10;16.20;;;7.80;86.50;;;;;;5055842;28;20025;-81
2021/05/10 00:53:44;;;;;;;27.35;16.70;;;7.80;86.60;;;;;;5055874;28;20190;-81
2021/05/10 00:56:10;;;;;;;23.95;15.48;;;7.70;86.50;;;;;;5055778;28;20100;-81
2021/05/10 00:58:37;;;;;;;21.70;14.48;;;7.70;86.60;;;;;;5054489;28;20037;-81
2021/05/10 01:01:02;;;;;;;20.23;14.00;;;7.70;86.60;;;;;;5054095;28;20017;-81
2021/05/10 01:03:29;;;;;;;17.77;13.50;;;7.70;86.70;;;;;;5055692;28;20055;-81
2021/05/10 01:05:55;;;;;;;17.20;12.98;;;7.70;86.60;;;;;;5054441;28;20035;-81
2021/05/10 01:08:21;;;;;;;17.52;12.85;;;7.60;86.70;;;;;;5054298;28;20463;-81
2021/05/10 01:10:46;;;;;;;16.50;11.63;;;7.60;86.80;;;;;;5054516;28;20028;-81
2021/05/10 01:13:13;;;;;;;14.77;11.00;;;7.60;86.90;;;;;;5055780;28;20486;-81
2021/05/10 01:15:40;;;;;;;19.65;12.63;;;7.60;86.90;;;;;;5055696;28;20016;-81
2021/05/10 01:18:06;;;;;;;14.55;11.23;;;7.50;86.80;;;;;;5055265;28;20115;-81
2021/05/10 01:20:33;;;;;;;15.10;11.57;;;7.60;86.70;;;;;;5054680;28;20048;-81
2021/05/10 01:23:00;;;;;;;17.45;12.68;;;7.50;86.70;;;;;;5053964;28;20017;-81
2021/05/10 01:25:31;;;;;;;18.20;13.68;;;7.50;86.60;;;;;;5054044;28;20056;-81
2021/05/10 01:27:59;;;;;;;17.80;12.73;;;7.50;86.50;;;;;;5053836;28;20115;-81
2021/05/10 01:30:40;;;;;;;16.95;13.18;;;7.50;86.50;;;;;;5055183;28;20108;-81
2021/05/10 01:33:08;;;;;;;16.38;11.85;;;7.50;86.60;;;;;;5055018;28;20475;-81
2021/05/10 01:35:38;;;;;;;16.00;12.48;;;7.50;86.70;;;;;;5053715;28;20053;-81
2021/05/10 01:38:04;;;;;;;;;;;7.50;86.60;;;;;;5054214;28;20029;-81
2021/05/10 01:40:30;;;;;;;17.00;13.77;;;7.40;86.50;;;;;;5053689;28;19905;-81
2021/05/10 01:42:57;;;;;;;19.52;13.77;;;7.40;86.70;;;;;;5054987;28;20479;-81
2021/05/10 01:45:23;;;;;;;16.63;12.90;;;7.40;86.80;;;;;;5054802;28;20093;-81
2021/05/10 01:47:54;;;;;;;16.88;13.27;;;7.40;86.90;;;;;;5054821;28;20474;-81
2021/05/10 01:50:21;;;;;;;16.35;13.13;;;7.30;86.90;;;;;;5054835;28;20025;-81
2021/05/10 01:52:48;;;;;;;15.27;11.52;;;7.40;86.90;;;;;;5054960;28;20025;-81
2021/05/10 01:55:15;;;;;;;14.27;11.20;;;7.40;86.80;;;;;;5053425;28;20497;-81
2021/05/10 01:57:41;;;;;;;14.23;10.25;;;7.40;86.90;;;;;;5053117;28;20025;-81
2021/05/10 02:00:10;;;;;;;16.40;11.23;;;7.30;86.90;;;;;;5054169;28;20020;-81
2021/05/10 02:02:37;;;;;;;16.85;10.98;;;7.30;86.90;;;;;;5054525;28;20021;-81
2021/05/10 02:05:12;;;;;;;16.50;11.10;;;7.30;86.90;;;;;;5054365;28;20020;-81
2021/05/10 02:07:43;;;;;;;12.77;10.77;;;7.30;86.90;;;;;;5053226;28;20040;-81
2021/05/10 02:10:34;;;;;;;14.30;10.27;;;7.20;87.10;;;;;;5053185;28;20387;-81
2021/05/10 02:13:12;;;;;;;13.85;9.38;;;7.30;87.10;;;;;;5053912;28;20033;-81
2021/05/10 02:15:39;;;;;;;9.25;7.80;;;7.20;87.00;;;;;;5054600;28;20052;-80
2021/05/10 02:18:05;;;;;;;11.25;8.10;;;7.20;86.90;;;;;;5065677;28;20032;-81
2021/05/10 02:20:32;;;;;;;10.60;7.55;;;7.20;87.00;;;;;;5074435;28;20017;-81
2021/05/10 02:23:05;;;;;;;11.30;7.90;;;7.20;87.00;;;;;;5072928;28;20378;-81
2021/05/10 02:25:36;;;;;;;10.43;7.68;;;7.20;87.10;;;;;;5074057;28;20105;-81
2021/05/10 02:28:05;;;;;;;10.10;7.38;;;7.20;87.30;;;;;;5072807;28;20021;-81
2021/05/10 02:30:33;;;;;;;13.98;8.57;;;7.20;87.20;;;;;;5072493;28;20440;-81
2021/05/10 02:33:01;;;;;;;11.48;8.50;;;7.20;87.30;;;;;;5073083;28;20523;-81
2021/05/10 02:35:27;;;;;;;13.65;8.93;;;7.20;87.30;;;;;;5073947;28;20123;-81
2021/05/10 02:37:54;;;;;;;13.52;9.05;;;7.20;87.20;;;;;;5072557;28;20048;-81
2021/05/10 02:40:20;;;;;;;12.93;9.30;;;7.20;87.10;;;;;;5073830;28;20028;-81
2021/05/10 02:42:46;;;;;;;15.93;10.30;;;7.20;87.10;;;;;;5073738;28;20413;-81
2021/05/10 02:45:13;;;;;;;13.73;9.85;;;7.20;87.20;;;;;;5069662;28;20103;-81
2021/05/10 02:47:41;;;;;;;14.27;9.85;;;7.20;87.20;;;;;;5052578;28;20029;-81
2021/05/10 02:50:12;;;;;;;15.50;10.45;;;7.20;87.40;;;;;;5052553;28;20032;-81
2021/05/10 02:52:38;;;;;;;16.02;10.27;;;7.20;87.50;;;;;;5053681;28;20466;-81
2021/05/10 02:55:06;;;;;;;16.58;10.73;;;7.20;87.50;;;;;;5052177;28;20077;-81
2021/05/10 02:57:32;;;;;;;26.58;12.82;;;7.20;87.60;;;;;;5053321;28;20036;-81
2021/05/10 02:59:57;;;;;;;20.10;12.55;;;7.20;87.60;;;;;;5053475;28;20020;-81
2021/05/10 03:02:23;;;;;;;19.85;12.88;;;7.20;87.60;;;;;;5052203;28;20375;-82
2021/05/10 03:04:50;;;;;;;24.42;14.35;;;7.20;87.60;;;;;;5053510;28;20391;-81
2021/05/10 03:07:15;;;;;;;20.42;13.00;;;7.30;87.70;;;;;;5053497;28;20035;-81
2021/05/10 03:09:41;;;;;;;22.88;13.95;;;7.30;87.80;;;;;;5053533;28;20025;-81
2021/05/10 03:12:07;;;;;;;24.83;14.32;;;7.30;87.80;;;;;;5053805;28;20039;-81
2021/05/10 03:14:33;;;;;;;26.85;15.00;;;7.30;87.80;;;;;;5053562;28;20032;-81
2021/05/10 03:16:59;;;;;;;26.33;15.70;;;7.40;88.10;;;;;;5053147;28;20029;-81
2021/05/10 03:19:24;;;;;;;28.95;16.27;;;7.40;88.10;;;;;;5053317;28;20029;-81
2021/05/10 03:21:50;;;;;;;28.73;16.00;;;7.50;88.30;;;;;;5053707;28;20460;-81
2021/05/10 03:24:16;;;;;;;27.60;16.60;;;7.50;88.30;;;;;;5049721;28;20497;-81
2021/05/10 03:26:41;;;;;;;27.98;15.70;;;7.50;88.20;;;;;;5053033;28;20024;-81
2021/05/10 03:29:08;;;;;;;30.20;16.30;;;7.60;88.40;;;;;;5053241;28;20033;-81
2021/05/10 03:31:35;;;;;;;29.65;15.93;;;7.60;88.60;;;;;;5052807;28;20036;-81
2021/05/10 03:34:01;;;;;;;26.92;15.68;;;7.60;88.80;;;;;;5053014;28;20082;-81
2021/05/10 03:36:27;;;;;;;23.98;15.15;;;7.60;89.00;;;;;;5053015;28;20072;-81
2021/05/10 03:38:53;;;;;;;34.00;17.90;;;7.70;89.20;;;;;;5051492;28;20029;-81
2021/05/10 03:41:20;;;;;;;49.17;22.77;;;7.70;89.30;;;;;;5051737;28;20021;-80
2021/05/10 03:43:45;;;;;;;42.45;21.23;;;7.80;89.50;;;;;;5055774;28;20020;-81
2021/05/10 03:46:11;;;;;;;39.10;19.13;;;7.80;89.50;;;;;;5055042;28;20017;-80
2021/05/10 03:48:37;;;;;;;34.05;18.33;;;7.90;89.50;;;;;;5055821;28;20040;-81
2021/05/10 03:51:02;;;;;;;38.90;19.65;;;7.90;89.60;;;;;;5056101;28;20028;-80
2021/05/10 03:53:28;;;;;;;31.27;17.25;;;8.00;89.50;;;;;;5056119;28;20430;-81
2021/05/10 03:55:54;;;;;;;30.83;17.77;;;8.10;89.60;;;;;;5056820;28;20028;-80
2021/05/10 03:58:19;;;;;;;29.27;16.50;;;8.10;89.60;;;;;;5056717;28;20032;-80
2021/05/10 04:00:45;;;;;;;27.23;15.20;;;8.20;89.60;;;;;;5055541;28;20028;-80
2021/05/10 04:03:13;;;;;;;27.38;15.57;;;8.30;89.60;;;;;;5056716;28;20383;-80
2021/05/10 04:06:15;;;;;;;27.23;15.65;;;8.30;89.60;;;;;;5056940;28;20050;-79
2021/05/10 04:13:36;;;;;;;26.13;16.13;;;8.50;90.10;;;;;;5055618;28;20021;-79
2021/05/10 04:14:10;;;;;;;29.30;16.55;;;8.60;89.80;;;;;;5036497;28;20467;-80
2021/05/10 04:16:36;;;;;;;32.55;20.17;;;8.70;90.00;;;;;;5036417;28;20045;-80
2021/05/10 04:19:02;;;;;;;37.15;21.73;;;8.80;90.00;;;;;;5035337;28;20021;-80
2021/05/10 04:21:27;;;;;;;42.20;24.33;;;8.90;90.00;;;;;;5045002;28;20060;-80
2021/05/10 04:23:53;;;;;;;34.65;20.23;;;8.90;90.00;;;;;;5055889;28;20025;-81
2021/05/10 04:26:19;;;;;;;29.85;18.33;;;9.00;90.00;;;;;;5054490;28;20021;-80
2021/05/10 04:28:44;;;;;;;29.58;17.45;;;9.10;90.10;;;;;;5055945;28;20029;-80
2021/05/10 04:31:10;;;;;;;28.30;16.17;;;9.10;90.10;;;;;;5054860;28;20166;-81
2021/05/10 04:33:36;;;;;;;26.85;15.80;;;9.20;90.10;;;;;;5055661;28;20029;-80
2021/05/10 04:36:01;;;;;;;27.65;15.52;;;9.30;90.20;;;;;;5055506;28;20077;-80
2021/05/10 04:38:28;;;;;;;23.58;14.60;;;9.40;90.20;;;;;;5055743;28;20036;-80
2021/05/10 04:40:55;;;;;;;23.17;14.40;;;9.50;90.20;;;;;;5055627;28;20116;-80
2021/05/10 04:43:21;;;;;;;25.63;14.38;;;9.60;90.20;;;;;;5055628;28;20378;-80
2021/05/10 04:45:47;;;;;;;21.92;13.98;;;9.60;90.20;;;;;;5055620;28;20029;-80
2021/05/10 04:48:12;;;;;;;19.33;12.68;;;9.70;90.20;;;;;;5055386;28;20419;-79
2021/05/10 04:50:38;;;;;;;22.45;12.63;;;9.80;90.10;;;;;;5053938;28;20086;-79
2021/05/10 04:53:12;;;;;;;20.95;12.20;;;9.90;90.10;;;;;;5055273;28;20033;-79
2021/05/10 04:55:39;;;;;;;16.48;10.20;;;10.00;90.00;;;;;;5054621;28;20032;-80
2021/05/10 04:58:05;;;;;;;18.48;12.43;;;10.10;89.80;;;;;;5055452;28;20025;-80
2021/05/10 05:00:31;;;;;;;28.05;16.05;;;10.20;89.70;;;;;;5054017;28;20079;-80
2021/05/10 05:02:56;;;;;;;39.83;21.95;;;10.20;89.00;;;;;;5055133;28;20029;-80
2021/05/10 05:05:22;;;;;;;28.80;17.10;;;10.40;89.00;;;;;;5054264;28;20056;-80
2021/05/10 05:07:48;;;;;;;21.73;13.75;;;10.40;88.70;;;;;;5054080;28;20036;-81
2021/05/10 05:10:14;;;;;;;20.67;11.93;;;10.50;88.40;;;;;;5055473;28;20100;-80
2021/05/10 05:12:40;;;;;;;17.65;10.88;;;10.60;88.30;;;;;;5055227;28;20039;-81
2021/05/10 05:15:07;;;;;;;15.82;10.55;;;10.60;88.20;;;;;;5054054;28;20179;-81
2021/05/10 05:17:34;;;;;;;13.50;9.05;;;10.70;88.20;;;;;;5053943;28;20364;-82
2021/05/10 05:20:00;;;;;;;11.75;8.35;;;10.80;87.70;;;;;;5053769;28;20021;-81
2021/05/10 05:22:26;;;;;;;13.63;8.55;;;10.90;87.30;;;;;;5054002;28;20383;-80
2021/05/10 05:24:53;;;;;;;11.15;7.25;;;11.00;86.80;;;;;;5053944;28;20099;-81
2021/05/10 05:27:19;;;;;;;9.27;5.75;;;11.00;86.20;;;;;;5053914;28;20021;-80
2021/05/10 05:29:45;;;;;;;8.38;5.18;;;11.10;85.00;;;;;;5054893;28;20489;-81
2021/05/10 05:32:10;;;;;;;8.35;4.93;;;11.10;84.20;;;;;;5054952;28;20151;-81
2021/05/10 05:34:36;;;;;;;5.20;4.50;;;11.20;83.50;;;;;;5055044;28;20418;-81
2021/05/10 05:37:02;;;;;;;5.03;3.78;;;11.30;82.50;;;;;;5054635;28;20494;-81
2021/05/10 05:39:27;;;;;;;10.10;5.93;;;11.40;81.70;;;;;;5054351;28;20520;-80
2021/05/10 05:41:53;;;;;;;25.75;15.07;;;11.50;81.00;;;;;;5055107;28;20024;-81
2021/05/10 05:44:18;;;;;;;10.18;7.00;;;11.50;79.70;;;;;;5054488;28;20029;-80
2021/05/10 05:46:48;;;;;;;14.18;6.32;;;11.60;78.70;;;;;;5054817;28;20087;-81
2021/05/10 05:49:14;;;;;;;7.50;4.90;;;11.70;79.20;;;;;;5054793;28;20082;-80
2021/05/10 05:51:40;;;;;;;7.75;5.57;;;11.70;78.50;;;;;;5053503;28;20112;-80
2021/05/10 05:54:07;;;;;;;8.43;5.80;;;11.80;78.80;;;;;;5053438;28;20074;-80
2021/05/10 05:56:33;;;;;;;9.43;6.20;;;11.80;78.10;;;;;;5054845;28;20032;-81
2021/05/10 05:58:59;;;;;;;8.45;6.18;;;11.90;77.90;;;;;;5053189;28;20032;-80
2021/05/10 06:01:25;;;;;;;5.10;4.28;;;12.00;77.10;;;;;;5054514;28;20032;-80
2021/05/10 06:03:53;;;;;;;8.27;4.43;;;12.10;76.70;;;;;;5054293;28;20025;-80
2021/05/10 06:06:19;;;;;;;5.10;4.03;;;12.20;75.60;;;;;;5053499;28;20029;-84
2021/05/10 06:08:44;;;;;;;6.13;4.35;;;12.20;74.70;;;;;;5053451;28;20087;-83
2021/05/10 06:11:10;;;;;;;6.70;4.82;;;12.30;73.30;;;;;;5054196;28;20032;-82
2021/05/10 06:13:37;;;;;;;7.68;4.80;;;12.40;72.70;;;;;;5054541;28;20478;-83
2021/05/10 06:16:04;;;;;;;5.95;4.03;;;12.40;71.50;;;;;;5051225;28;20052;-82
2021/05/10 06:18:30;;;;;;;8.77;5.00;;;12.50;71.90;;;;;;5052480;28;20021;-82
2021/05/10 06:20:55;;;;;;;6.03;4.35;;;12.50;71.80;;;;;;5053755;28;20090;-82
2021/05/10 06:23:21;;;;;;;6.80;4.28;;;12.50;71.50;;;;;;5054190;28;20031;-82
2021/05/10 06:25:47;;;;;;;5.28;4.03;;;12.50;71.30;;;;;;5054218;28;20017;-88
2021/05/10 06:28:13;;;;;;;5.85;4.00;;;12.50;71.10;;;;;;5052808;28;20029;-81
2021/05/10 06:30:38;;;;;;;4.20;3.72;;;12.60;70.50;;;;;;5053866;28;20047;-82
2021/05/10 06:33:04;;;;;;;6.13;4.13;;;12.70;69.60;;;;;;5054290;28;20071;-81
2021/05/10 06:35:29;;;;;;;5.40;4.32;;;12.70;67.80;;;;;;5053532;28;20055;-81
2021/05/10 06:37:55;;;;;;;5.75;4.22;;;12.80;67.30;;;;;;5053892;28;20040;-81
2021/05/10 06:40:21;;;;;;;5.70;4.43;;;12.80;66.70;;;;;;5053593;28;20056;-81
2021/05/10 06:42:46;;;;;;;6.53;4.72;;;12.80;65.10;;;;;;5053799;28;20025;-81
2021/05/10 06:45:12;;;;;;;6.63;4.28;;;12.80;65.10;;;;;;5053363;28;20410;-81
2021/05/10 06:47:40;;;;;;;7.20;4.10;;;12.90;65.40;;;;;;5051905;28;20166;-80
2021/05/10 06:50:06;;;;;;;5.88;3.95;;;12.80;65.60;;;;;;5052199;28;20032;-81
2021/05/10 06:52:33;;;;;;;8.43;4.05;;;12.90;65.40;;;;;;5052676;28;20035;-82
2021/05/10 06:54:59;;;;;;;5.97;3.60;;;12.90;63.80;;;;;;5051636;28;20029;-81
2021/05/10 06:57:25;;;;;;;4.20;3.08;;;13.00;60.60;;;;;;5051358;28;20028;-80
2021/05/10 06:59:50;;;;;;;6.88;3.25;;;13.00;57.70;;;;;;5052873;28;20025;-87
2021/05/10 07:02:16;;;;;;;4.50;2.60;;;13.00;56.00;;;;;;5051490;28;20029;-80
2021/05/10 07:04:42;;;;;;;7.72;2.63;;;13.00;55.90;;;;;;5052801;28;20029;-82
2021/05/10 07:07:07;;;;;;;5.60;2.30;;;13.00;56.30;;;;;;5053167;28;20033;-79
2021/05/10 07:09:33;;;;;;;4.03;2.13;;;13.00;53.70;;;;;;5050505;28;20063;-79
2021/05/10 07:11:59;;;;;;;1.73;1.52;;;13.10;53.00;;;;;;5052318;28;20025;-80
2021/05/10 07:14:24;;;;;;;6.32;2.70;;;13.10;54.00;;;;;;5052154;28;20575;-85
2021/05/10 07:16:50;;;;;;;3.30;2.20;;;13.10;53.00;;;;;;5052151;28;20032;-81
2021/05/10 07:19:16;;;;;;;4.03;2.40;;;13.10;53.80;;;;;;5055346;28;20075;-82
2021/05/10 07:21:42;;;;;;;4.97;2.50;;;13.10;54.40;;;;;;5055969;28;20078;-81
2021/05/10 07:24:08;;;;;;;4.50;2.80;;;13.10;52.90;;;;;;5055301;28;20040;-83
2021/05/10 07:26:35;;;;;;;8.50;2.88;;;13.10;53.60;;;;;;5055665;28;20027;-81
2021/05/10 07:29:01;;;;;;;4.47;2.60;;;13.20;54.20;;;;;;5055675;28;20029;-81
2021/05/10 17:02:30;;;;;;;3.35;2.97;;;17.00;40.80;;;;;;5774526;23;20056;-79
2021/05/10 17:04:57;;;;;;;2.88;2.60;;;16.90;41.10;;;;;;4900483;29;20127;-78
2021/05/10 17:07:23;;;;;;;3.20;2.90;;;16.80;41.20;;;;;;4918850;29;20020;-76
2021/05/10 17:09:49;;;;;;;2.90;2.60;;;16.80;41.30;;;;;;4901769;29;20541;-76
2021/05/10 17:12:15;;;;;;;2.78;2.58;;;16.80;41.40;;;;;;4918867;29;20423;-72
2021/05/10 17:14:41;;;;;;;2.97;2.30;;;16.70;41.50;;;;;;4918695;29;20035;-72
2021/05/10 17:17:07;;;;;;;4.35;2.75;;;16.70;42.20;;;;;;4918379;29;20028;-76
2021/05/10 17:19:32;;;;;;;3.08;2.30;;;16.60;41.60;;;;;;4918726;29;20071;-78
2021/05/10 17:21:58;;;;;;;2.40;2.10;;;16.60;41.80;;;;;;4918594;29;20024;-77
2021/05/10 17:24:24;;;;;;;2.50;2.30;;;16.50;42.20;;;;;;4918118;29;20052;-77
2021/05/10 17:26:50;;;;;;;3.00;2.20;;;16.50;42.50;;;;;;4901525;29;20024;-82
2021/05/10 17:29:15;;;;;;;2.58;2.10;;;16.40;42.90;;;;;;4918561;29;20028;-79
2021/05/10 17:31:44;;;;;;;2.40;2.20;;;16.30;43.50;;;;;;4901452;29;20028;-78
2021/05/10 17:34:10;;;;;;;2.33;2.13;;;16.30;43.70;;;;;;4918293;29;20024;-78
2021/05/10 17:36:37;;;;;;;4.13;2.75;;;16.20;44.20;;;;;;4918409;29;20028;-79
2021/05/10 17:39:09;;;;;;;7.10;4.57;;;16.10;44.50;;;;;;4901414;29;20083;-77
2021/05/10 17:41:38;;;;;;;6.97;4.95;;;16.00;44.80;;;;;;4901411;29;20378;-77
2021/05/10 17:44:09;;;;;;;7.60;4.85;;;16.00;45.10;;;;;;4901375;29;20048;-82
2021/05/10 17:46:36;;;;;;;7.40;4.95;;;15.90;45.40;;;;;;4900937;29;20024;-82
2021/05/10 17:49:03;;;;;;;5.47;3.97;;;15.90;46.30;;;;;;4917406;29;20073;-81
2021/05/10 17:51:29;;;;;;;5.03;4.00;;;15.80;45.90;;;;;;4918362;29;20024;-82
2021/05/10 17:53:55;;;;;;;5.05;4.07;;;15.70;46.00;;;;;;4916780;29;20035;-81
2021/05/10 17:56:21;;;;;;;6.80;3.30;;;15.70;46.20;;;;;;4917833;29;20063;-81
2021/05/10 17:58:48;;;;;;;4.00;3.60;;;15.60;46.30;;;;;;4901017;29;20478;-81
2021/05/10 18:03:56;;;;;;;5.32;3.50;;;15.60;46.40;;;;;;4917560;29;20048;-80
2021/05/10 18:06:21;;;;;;;9.35;3.90;;;15.50;46.40;;;;;;4901001;29;20021;-80
2021/05/10 18:08:48;;;;;;;6.63;3.80;;;15.50;46.50;;;;;;4900280;29;20159;-79
2021/05/10 18:11:14;;;;;;;6.53;3.28;;;15.40;46.90;;;;;;4900802;29;20481;-78
2021/05/10 18:13:39;;;;;;;6.82;4.10;;;15.30;47.30;;;;;;4900730;29;20046;-78
2021/05/10 18:16:05;;;;;;;8.30;4.30;;;15.30;47.80;;;;;;4900836;29;20032;-78
2021/05/10 18:21:09;;;;;;;7.18;5.57;;;15.10;48.30;;;;;;4918086;29;20028;-86
2021/05/10 18:23:35;;;;;;;11.63;6.78;;;15.00;49.10;;;;;;4900611;29;20024;-79
2021/05/10 18:26:00;;;;;;;52.75;32.13;;;14.90;49.60;;;;;;4917679;29;20032;-78
2021/05/10 18:28:27;;;;;;;72.40;42.97;;;14.90;49.90;;;;;;4917661;29;20028;-78
2021/05/10 18:30:52;;;;;;;79.47;47.83;;;14.80;50.30;;;;;;4917487;29;20032;-78
2021/05/10 18:33:18;;;;;;;60.28;37.80;;;14.70;50.80;;;;;;4917534;29;20079;-78
2021/05/10 18:35:44;;;;;;;36.70;24.23;;;14.60;51.20;;;;;;4900292;29;20111;-78
2021/05/10 18:38:15;;;;;;;28.60;19.25;;;14.50;51.60;;;;;;4900387;29;20032;-78
2021/05/10 18:40:45;;;;;;;18.63;12.02;;;14.40;52.50;;;;;;4900441;29;20043;-78
2021/05/10 18:43:12;;;;;;;19.05;10.15;;;14.40;52.80;;;;;;4917557;29;20056;-78
2021/05/10 18:45:40;;;;;;;11.07;7.22;;;14.30;53.30;;;;;;4900391;29;20024;-78
2021/05/10 18:48:08;;;;;;;11.85;6.68;;;14.20;53.60;;;;;;4900418;29;20402;-78
2021/05/10 18:50:42;;;;;;;8.98;6.68;;;14.10;54.10;;;;;;4917143;29;20036;-80
2021/05/10 18:53:10;;;;;;;10.13;6.50;;;14.10;56.30;;;;;;4900215;29;20067;-80
2021/05/10 18:55:36;;;;;;;9.02;4.95;;;14.00;56.00;;;;;;4917243;29;20031;-80
2021/05/10 18:58:03;;;;;;;8.23;5.32;;;13.90;56.30;;;;;;4900123;29;20099;-80
2021/05/10 19:00:33;;;;;;;7.35;5.03;;;13.90;57.30;;;;;;4900205;29;20028;-80
2021/05/10 19:02:59;;;;;;;11.27;4.30;;;13.80;57.60;;;;;;4915148;29;20568;-80
2021/05/10 19:05:25;;;;;;;7.13;3.85;;;13.80;57.30;;;;;;4900554;29;20036;-80
2021/05/10 19:07:52;;;;;;;8.50;3.90;;;13.70;57.60;;;;;;4900621;29;20024;-80
2021/05/10 19:10:19;;;;;;;5.50;4.07;;;13.70;57.90;;;;;;4917873;29;20472;-80
2021/05/10 19:12:45;;;;;;;6.25;3.70;;;13.60;58.30;;;;;;4900146;29;20482;-80
2021/05/10 19:15:12;;;;;;;7.13;4.20;;;13.50;58.40;;;;;;4900209;29;20578;-80
2021/05/10 19:17:38;;;;;;;6.50;4.22;;;13.50;58.40;;;;;;4900358;29;20431;-80
2021/05/10 19:20:05;;;;;;;5.65;3.90;;;13.50;58.60;;;;;;4917691;29;20025;-80
2021/05/10 19:22:31;;;;;;;7.97;3.88;;;13.40;59.20;;;;;;4917312;29;20079;-80
2021/05/10 19:24:59;;;;;;;6.82;3.75;;;13.40;57.20;;;;;;4917448;29;20422;-80
2021/05/10 19:27:24;;;;;;;6.15;4.28;;;13.40;57.10;;;;;;4917295;29;20024;-80
2021/05/10 19:29:54;;;;;;;5.18;3.63;;;13.50;55.20;;;;;;4917665;29;20470;-80
2021/05/10 19:32:20;;;;;;;4.10;3.40;;;13.60;55.50;;;;;;4900286;29;20398;-79
2021/05/10 19:34:48;;;;;;;5.00;3.33;;;13.60;54.60;;;;;;4900382;29;20091;-79
2021/05/10 19:37:14;;;;;;;3.35;2.72;;;13.70;53.60;;;;;;4917302;29;20462;-78
2021/05/10 19:39:40;;;;;;;3.42;2.67;;;13.80;52.90;;;;;;4900132;29;20028;-78
2021/05/10 19:42:06;;;;;;;3.92;2.88;;;13.80;52.50;;;;;;4917201;29;20080;-78
2021/05/10 19:44:40;;;;;;;3.13;2.83;;;13.90;52.10;;;;;;4900417;29;20481;-86
2021/05/10 19:47:15;;;;;;;4.78;3.22;;;13.90;51.40;;;;;;4917882;29;20017;-80
2021/05/10 19:50:08;;;;;;;6.00;2.95;;;13.90;51.30;;;;;;4917259;29;20160;-82
2021/05/10 20:03:08;;;;;;;3.95;3.30;;;13.90;51.90;;;;;;4917251;29;20020;-81
2021/05/10 20:05:34;;;;;;;3.92;2.90;;;13.90;52.20;;;;;;4900023;29;20028;-80
2021/05/10 20:08:00;;;;;;;3.78;3.10;;;13.80;52.50;;;;;;4900182;29;20099;-79
2021/05/10 20:10:26;;;;;;;4.10;2.90;;;13.80;52.70;;;;;;4900090;29;20037;-81
2021/05/10 20:12:51;;;;;;;3.83;3.00;;;13.80;53.00;;;;;;4916943;29;20032;-81
2021/05/10 20:15:17;;;;;;;6.22;3.00;;;13.80;53.30;;;;;;4899962;29;20075;-80
2021/05/10 20:17:43;;;;;;;4.10;2.70;;;13.80;53.60;;;;;;4917286;29;20027;-80
2021/05/10 20:20:09;;;;;;;4.10;3.22;;;13.70;53.80;;;;;;4916483;29;20043;-80
2021/05/10 20:22:36;;;;;;;3.75;3.35;;;13.70;54.00;;;;;;4917181;29;20024;-80
2021/05/10 20:25:03;;;;;;;3.42;3.00;;;13.70;54.30;;;;;;4901174;29;20076;-79
2021/05/10 20:27:28;;;;;;;5.63;3.22;;;13.70;54.60;;;;;;4920233;29;20111;-80
2021/05/10 20:29:54;;;;;;;4.68;3.33;;;13.60;55.60;;;;;;4903306;29;20082;-80
2021/05/10 20:32:20;;;;;;;3.30;3.00;;;13.60;55.30;;;;;;4920232;29;20028;-80
2021/05/10 20:34:45;;;;;;;3.72;2.72;;;13.50;55.10;;;;;;4920065;29;20028;-81
2021/05/10 20:37:11;;;;;;;3.38;3.05;;;13.50;55.20;;;;;;4903163;29;20028;-80
2021/05/10 20:39:37;;;;;;;6.13;3.22;;;13.50;55.70;;;;;;4919782;29;20036;-80
2021/05/10 20:42:04;;;;;;;5.00;2.83;;;13.50;55.60;;;;;;4903086;29;20063;-80
2021/05/10 20:44:29;;;;;;;5.95;3.13;;;13.50;55.60;;;;;;4919961;29;20536;-79
2021/05/10 20:46:55;;;;;;;4.10;2.97;;;13.50;55.60;;;;;;4903248;29;20028;-79
2021/05/10 20:49:21;;;;;;;4.35;3.38;;;13.50;55.50;;;;;;4902857;29;20367;-80
2021/05/10 20:51:46;;;;;;;3.90;2.80;;;13.50;55.40;;;;;;4920138;29;20032;-80
2021/05/10 20:54:12;;;;;;;3.25;2.95;;;13.50;55.20;;;;;;4902847;29;20059;-79
2021/05/10 20:56:38;;;;;;;4.78;3.10;;;13.50;55.00;;;;;;4919794;29;20024;-79
2021/05/10 20:59:04;;;;;;;3.78;3.10;;;13.50;54.60;;;;;;4919683;29;20029;-79
2021/05/10 21:01:29;;;;;;;3.28;2.70;;;13.50;54.40;;;;;;4902663;29;20028;-81
2021/05/10 21:03:55;;;;;;;6.25;3.53;;;13.50;54.30;;;;;;4902595;29;20051;-77
2021/05/10 21:06:22;;;;;;;4.45;3.13;;;13.50;54.30;;;;;;4919668;29;20021;-78
2021/05/10 21:08:48;;;;;;;5.97;3.70;;;13.40;54.20;;;;;;4919554;29;20039;-78
2021/05/10 21:11:15;;;;;;;6.30;3.67;;;13.40;54.20;;;;;;4902523;29;20051;-82
2021/05/10 21:13:40;;;;;;;8.27;3.65;;;13.50;54.80;;;;;;4902524;29;20031;-80
2021/05/10 21:16:06;;;;;;;4.93;3.55;;;13.40;54.30;;;;;;4902813;29;20029;-80
2021/05/10 21:18:32;;;;;;;5.75;3.90;;;13.50;54.40;;;;;;4919318;29;20434;-80
2021/05/10 21:20:58;;;;;;;6.82;4.60;;;13.40;54.70;;;;;;4902437;29;20072;-81
2021/05/10 21:23:25;;;;;;;7.35;4.20;;;13.40;54.90;;;;;;4902368;29;20052;-78
2021/05/10 21:25:52;;;;;;;6.90;4.45;;;13.40;55.00;;;;;;4902321;29;20427;-78
2021/05/10 21:28:17;;;;;;;11.13;4.90;;;13.40;55.30;;;;;;4902269;29;20075;-80
2021/05/10 21:30:43;;;;;;;5.85;4.32;;;13.30;55.50;;;;;;4919189;29;20036;-80
2021/05/10 21:33:16;;;;;;;7.32;4.40;;;13.30;55.60;;;;;;4902013;29;20033;-80
2021/05/10 21:35:43;;;;;;;6.90;4.38;;;13.30;55.80;;;;;;4918788;29;20509;-80
2021/05/10 21:38:08;;;;;;;5.63;4.25;;;13.30;55.90;;;;;;4901563;29;20035;-82
2021/05/10 21:40:35;;;;;;;7.90;4.40;;;13.30;56.00;;;;;;4919040;29;20028;-81
2021/05/10 21:43:02;;;;;;;4.55;3.92;;;13.30;56.20;;;;;;4901693;29;20533;-81
2021/05/10 21:45:30;;;;;;;8.05;4.75;;;13.30;56.30;;;;;;4901925;29;20132;-81
2021/05/10 21:47:58;;;;;;;6.55;4.45;;;13.20;56.50;;;;;;4901879;29;20060;-79
2021/05/10 21:50:23;;;;;;;7.22;3.92;;;13.20;56.40;;;;;;4918556;29;20016;-79
2021/05/10 21:52:49;;;;;;;9.43;4.43;;;13.20;56.40;;;;;;4918665;29;20035;-81
2021/05/10 21:55:15;;;;;;;6.55;3.83;;;13.20;56.30;;;;;;4901593;29;20036;-80
2021/05/10 21:57:40;;;;;;;5.05;4.10;;;13.20;56.50;;;;;;4918567;29;20035;-79
2021/05/10 22:00:08;;;;;;;7.20;4.10;;;13.20;56.50;;;;;;4901508;29;20024;-81
2021/05/10 22:02:34;;;;;;;4.82;3.65;;;13.20;56.40;;;;;;4918844;29;20458;-79
2021/05/10 22:04:59;;;;;;;6.43;3.72;;;13.20;56.80;;;;;;4918383;29;20067;-79
2021/05/10 22:07:25;;;;;;;6.10;4.40;;;13.20;57.60;;;;;;4918446;29;20031;-80
2021/05/10 22:09:51;;;;;;;4.97;3.72;;;13.20;58.20;;;;;;4901511;29;20438;-81
2021/05/10 22:12:16;;;;;;;7.10;4.63;;;13.10;58.30;;;;;;4918361;29;20035;-80
2021/05/10 22:14:42;;;;;;;5.32;4.15;;;13.10;59.40;;;;;;4918381;29;20491;-80
2021/05/10 22:17:08;;;;;;;7.43;4.47;;;13.10;59.70;;;;;;4901335;29;20097;-81
2021/05/10 22:19:38;;;;;;;6.47;4.40;;;13.00;60.40;;;;;;4901123;29;20028;-79
2021/05/10 22:22:04;;;;;;;4.72;3.70;;;13.00;60.70;;;;;;4918547;29;20545;-80
2021/05/10 22:24:41;;;;;;;5.25;3.85;;;12.90;61.00;;;;;;4917805;29;20487;-80
2021/05/10 22:27:19;;;;;;;6.95;4.10;;;12.90;61.30;;;;;;4901123;29;20032;-79
2021/05/10 22:29:45;;;;;;;9.07;4.70;;;12.80;61.40;;;;;;4901172;29;20474;-81